Tilden, TX (78072)

6:48 PM CDT on August 29, 2015 (GMT -0500)
Huajuco Road | | Change Station
CLOSE
Current Station
Personal Weather Station
Location: Cotulla, TX
Elevation: 394 ft
Nearby Weather Stations

Elev 394 ft 28.19 °N, 99.01 °W | Updated 5 seconds ago

Clear
Clear
94.4 °F
Feels Like 93 °F
N
5.4
Wind Variable Wind from NE
Gusts 12.0 mph

Today
High -- | Low -- °F
--% Chance of Precip.
Yesterday
High -- | Low -- °F
Precip. -- in
7:11 AM 7:59 PM
Full, 100% visible
Pressure 29.91 in
Visibility 10.0 miles
Clouds Few 7500 ft
Few 11000 ft
Heat Index 93 °F
Dew Point 55 °F
Humidity 27%
Rainfall 0.00 in
Snow Depth Not available.
UV 2 out of 12
Pollen 8.20 out of 12
Air Quality Not available.
Flu Activity Not available.
METAR KCOT 292253Z AUTO 10006KT 10SM FEW075 FEW110 36/12 A2993 RMK AO2 SLP126 T03610117 $
Pressure 29.91 in
Visibility 10.0 miles
Clouds Few 7500 ft
Few 11000 ft
Heat Index 93 °F
Dew Point 55 °F
Humidity 27%
Rainfall 0.00 in
Snow Depth Not available.
UV 2 out of 12
Pollen 8.20 out of 12
Air Quality Not available.
Flu Activity Not available.
METAR KCOT 292253Z AUTO 10006KT 10SM FEW075 FEW110 36/12 A2993 RMK AO2 SLP126 T03610117 $

10-Day Weather Forecast

×

Almanac

Astronomy

Aug. 29, 2015 Rise Set
Actual Time
Civil Twilight
Nautical Twilight
Astronomical Twilight
Moon
Length of Visible Light
Length of Day
Tomorrow will be .
, % of the Moon is Illuminated

Today's Extremes

State Highs State Lows

Community

WunderPhotos

Upload Photos

1,850,784 photos uploaded!

WunderBlogs® & News

Nearby

Air Quality

  Air Quality AQ Index Pollutant
Not available.

Snow Depth

Station Depth Elevation

Earthquake Activity

City Distance Mag. Time & Date
Minimum magnitude displayed is 2.5.

Coastal Water Temperatures

Place Temperature

Stations

Nearby Weather Stations

Station Location Temp. Windchill Dew Point Humidity Wind Precip. Elev Updated Type